sensor_id;sensor_type;location;lat;lon;timestamp;temperature;humidity
10468;DHT22;5281;48.878;9.394;2022-12-07T00:01:25;7.40;99.90
10468;DHT22;5281;48.878;9.394;2022-12-07T00:03:53;7.30;99.90
10468;DHT22;5281;48.878;9.394;2022-12-07T00:06:24;7.30;99.90
10468;DHT22;5281;48.878;9.394;2022-12-07T00:08:51;7.30;99.90
10468;DHT22;5281;48.878;9.394;2022-12-07T00:11:19;7.30;99.90
10468;DHT22;5281;48.878;9.394;2022-12-07T00:13:47;7.30;99.90
10468;DHT22;5281;48.878;9.394;2022-12-07T00:16:15;7.30;99.90
10468;DHT22;5281;48.878;9.394;2022-12-07T00:18:43;7.20;99.90
10468;DHT22;5281;48.878;9.394;2022-12-07T00:21:12;7.20;99.90
10468;DHT22;5281;48.878;9.394;2022-12-07T00:23:41;7.20;99.90
10468;DHT22;5281;48.878;9.394;2022-12-07T00:26:10;7.20;99.90
10468;DHT22;5281;48.878;9.394;2022-12-07T00:28:38;7.10;99.90
10468;DHT22;5281;48.878;9.394;2022-12-07T00:31:07;7.20;99.90
10468;DHT22;5281;48.878;9.394;2022-12-07T00:33:35;7.20;99.90
10468;DHT22;5281;48.878;9.394;2022-12-07T00:36:03;7.20;99.90
10468;DHT22;5281;48.878;9.394;2022-12-07T00:38:33;7.00;99.90
10468;DHT22;5281;48.878;9.394;2022-12-07T00:41:04;6.80;99.90
10468;DHT22;5281;48.878;9.394;2022-12-07T00:43:31;6.60;99.90
10468;DHT22;5281;48.878;9.394;2022-12-07T00:45:58;6.60;99.90
10468;DHT22;5281;48.878;9.394;2022-12-07T00:48:25;6.70;99.90
10468;DHT22;5281;48.878;9.394;2022-12-07T00:50:52;6.80;99.90
10468;DHT22;5281;48.878;9.394;2022-12-07T00:53:19;6.90;99.90
10468;DHT22;5281;48.878;9.394;2022-12-07T00:55:46;6.90;99.90
10468;DHT22;5281;48.878;9.394;2022-12-07T00:58:15;7.00;99.90
10468;DHT22;5281;48.878;9.394;2022-12-07T01:00:43;7.00;99.90
10468;DHT22;5281;48.878;9.394;2022-12-07T01:03:12;7.10;99.90
10468;DHT22;5281;48.878;9.394;2022-12-07T01:05:39;7.00;99.90
10468;DHT22;5281;48.878;9.394;2022-12-07T01:08:07;7.00;99.90
10468;DHT22;5281;48.878;9.394;2022-12-07T01:10:34;7.00;99.90
10468;DHT22;5281;48.878;9.394;2022-12-07T01:13:01;7.00;99.90
10468;DHT22;5281;48.878;9.394;2022-12-07T01:15:30;6.90;99.90
10468;DHT22;5281;48.878;9.394;2022-12-07T01:17:57;7.00;99.90
10468;DHT22;5281;48.878;9.394;2022-12-07T01:20:23;6.90;99.90
10468;DHT22;5281;48.878;9.394;2022-12-07T01:22:50;6.90;99.90
10468;DHT22;5281;48.878;9.394;2022-12-07T01:25:17;6.90;99.90
10468;DHT22;5281;48.878;9.394;2022-12-07T01:27:44;6.90;99.90
10468;DHT22;5281;48.878;9.394;2022-12-07T01:30:12;6.80;99.90
10468;DHT22;5281;48.878;9.394;2022-12-07T01:32:41;6.80;99.90
10468;DHT22;5281;48.878;9.394;2022-12-07T01:35:08;6.80;99.90
10468;DHT22;5281;48.878;9.394;2022-12-07T01:37:35;6.80;99.90
10468;DHT22;5281;48.878;9.394;2022-12-07T01:40:03;6.80;99.90
10468;DHT22;5281;48.878;9.394;2022-12-07T01:42:30;6.80;99.90
10468;DHT22;5281;48.878;9.394;2022-12-07T01:45:37;6.80;99.90
10468;DHT22;5281;48.878;9.394;2022-12-07T01:48:07;6.80;99.90
10468;DHT22;5281;48.878;9.394;2022-12-07T01:50:35;6.80;99.90
10468;DHT22;5281;48.878;9.394;2022-12-07T01:53:05;6.80;99.90
10468;DHT22;5281;48.878;9.394;2022-12-07T01:55:34;6.80;99.90
10468;DHT22;5281;48.878;9.394;2022-12-07T01:58:02;6.80;99.90
10468;DHT22;5281;48.878;9.394;2022-12-07T02:00:30;6.90;99.90
10468;DHT22;5281;48.878;9.394;2022-12-07T02:03:00;6.90;99.90
10468;DHT22;5281;48.878;9.394;2022-12-07T02:05:32;6.90;99.90
10468;DHT22;5281;48.878;9.394;2022-12-07T02:08:00;7.00;99.90
10468;DHT22;5281;48.878;9.394;2022-12-07T02:10:30;7.20;99.90
10468;DHT22;5281;48.878;9.394;2022-12-07T02:13:03;7.10;99.90
10468;DHT22;5281;48.878;9.394;2022-12-07T02:15:37;7.10;99.90
10468;DHT22;5281;48.878;9.394;2022-12-07T02:18:09;7.20;99.90
10468;DHT22;5281;48.878;9.394;2022-12-07T02:20:45;7.20;99.90
10468;DHT22;5281;48.878;9.394;2022-12-07T02:23:35;7.20;99.90
10468;DHT22;5281;48.878;9.394;2022-12-07T02:29:11;7.20;99.90
10468;DHT22;5281;48.878;9.394;2022-12-07T02:31:44;7.10;99.90
10468;DHT22;5281;48.878;9.394;2022-12-07T02:34:20;7.10;99.90
10468;DHT22;5281;48.878;9.394;2022-12-07T02:36:53;7.10;99.90
10468;DHT22;5281;48.878;9.394;2022-12-07T02:39:28;7.10;99.90
10468;DHT22;5281;48.878;9.394;2022-12-07T02:42:00;7.10;99.90
10468;DHT22;5281;48.878;9.394;2022-12-07T02:44:31;7.10;99.90
10468;DHT22;5281;48.878;9.394;2022-12-07T02:47:02;7.10;99.90
10468;DHT22;5281;48.878;9.394;2022-12-07T02:49:30;7.10;99.90
10468;DHT22;5281;48.878;9.394;2022-12-07T02:51:57;7.10;99.90
10468;DHT22;5281;48.878;9.394;2022-12-07T02:54:24;7.00;99.90
10468;DHT22;5281;48.878;9.394;2022-12-07T02:56:55;7.00;99.90
10468;DHT22;5281;48.878;9.394;2022-12-07T02:59:35;6.90;99.90
10468;DHT22;5281;48.878;9.394;2022-12-07T03:02:15;6.90;99.90
10468;DHT22;5281;48.878;9.394;2022-12-07T03:04:50;6.80;99.90
10468;DHT22;5281;48.878;9.394;2022-12-07T03:07:29;6.90;99.90
10468;DHT22;5281;48.878;9.394;2022-12-07T03:10:03;6.90;99.90
10468;DHT22;5281;48.878;9.394;2022-12-07T03:12:34;6.80;99.90
10468;DHT22;5281;48.878;9.394;2022-12-07T03:15:07;6.80;99.90
10468;DHT22;5281;48.878;9.394;2022-12-07T03:17:39;6.80;99.90
10468;DHT22;5281;48.878;9.394;2022-12-07T03:20:09;6.70;99.90
10468;DHT22;5281;48.878;9.394;2022-12-07T03:22:39;6.70;99.90
10468;DHT22;5281;48.878;9.394;2022-12-07T03:25:09;6.70;99.90
10468;DHT22;5281;48.878;9.394;2022-12-07T03:27:39;6.70;99.90
10468;DHT22;5281;48.878;9.394;2022-12-07T03:30:12;6.60;99.90
10468;DHT22;5281;48.878;9.394;2022-12-07T03:32:44;6.60;99.90
10468;DHT22;5281;48.878;9.394;2022-12-07T03:35:15;6.60;99.90
10468;DHT22;5281;48.878;9.394;2022-12-07T03:37:46;6.60;99.90
10468;DHT22;5281;48.878;9.394;2022-12-07T03:40:19;6.60;99.90
10468;DHT22;5281;48.878;9.394;2022-12-07T03:42:49;6.50;99.90
10468;DHT22;5281;48.878;9.394;2022-12-07T03:45:19;6.50;99.90
10468;DHT22;5281;48.878;9.394;2022-12-07T03:47:50;6.50;99.90
10468;DHT22;5281;48.878;9.394;2022-12-07T03:50:28;6.40;99.90
10468;DHT22;5281;48.878;9.394;2022-12-07T03:53:02;6.30;99.90
10468;DHT22;5281;48.878;9.394;2022-12-07T03:55:33;6.20;99.90
10468;DHT22;5281;48.878;9.394;2022-12-07T03:58:04;6.10;99.90
10468;DHT22;5281;48.878;9.394;2022-12-07T04:00:33;6.00;99.90
10468;DHT22;5281;48.878;9.394;2022-12-07T04:03:00;5.90;99.90
10468;DHT22;5281;48.878;9.394;2022-12-07T04:05:27;5.70;99.90
10468;DHT22;5281;48.878;9.394;2022-12-07T04:07:54;5.60;99.90
10468;DHT22;5281;48.878;9.394;2022-12-07T04:10:21;5.50;99.90
10468;DHT22;5281;48.878;9.394;2022-12-07T04:12:48;5.50;99.90
10468;DHT22;5281;48.878;9.394;2022-12-07T04:15:15;5.50;99.90
10468;DHT22;5281;48.878;9.394;2022-12-07T04:17:43;5.40;99.90
10468;DHT22;5281;48.878;9.394;2022-12-07T04:20:11;5.40;99.90
10468;DHT22;5281;48.878;9.394;2022-12-07T04:22:38;5.30;99.90
10468;DHT22;5281;48.878;9.394;2022-12-07T04:25:05;5.20;99.90
10468;DHT22;5281;48.878;9.394;2022-12-07T04:27:32;5.20;99.90
10468;DHT22;5281;48.878;9.394;2022-12-07T04:29:59;5.10;99.90
10468;DHT22;5281;48.878;9.394;2022-12-07T04:32:26;5.10;99.90
10468;DHT22;5281;48.878;9.394;2022-12-07T04:34:54;5.20;99.90
10468;DHT22;5281;48.878;9.394;2022-12-07T04:37:21;5.30;99.90
10468;DHT22;5281;48.878;9.394;2022-12-07T04:39:48;5.20;99.90
10468;DHT22;5281;48.878;9.394;2022-12-07T04:42:15;5.10;99.90
10468;DHT22;5281;48.878;9.394;2022-12-07T04:44:41;5.20;99.90
10468;DHT22;5281;48.878;9.394;2022-12-07T04:47:08;5.20;99.90
10468;DHT22;5281;48.878;9.394;2022-12-07T04:49:35;5.20;99.90
10468;DHT22;5281;48.878;9.394;2022-12-07T04:52:03;5.30;99.90
10468;DHT22;5281;48.878;9.394;2022-12-07T04:54:30;5.40;99.90
10468;DHT22;5281;48.878;9.394;2022-12-07T04:56:56;5.50;99.90
10468;DHT22;5281;48.878;9.394;2022-12-07T04:59:23;5.40;99.90
10468;DHT22;5281;48.878;9.394;2022-12-07T05:01:50;5.20;99.90
10468;DHT22;5281;48.878;9.394;2022-12-07T05:04:17;5.00;99.90
10468;DHT22;5281;48.878;9.394;2022-12-07T05:06:44;4.90;99.90
10468;DHT22;5281;48.878;9.394;2022-12-07T05:09:12;5.00;99.90
10468;DHT22;5281;48.878;9.394;2022-12-07T05:11:39;5.10;99.90
10468;DHT22;5281;48.878;9.394;2022-12-07T05:14:08;5.00;99.90
10468;DHT22;5281;48.878;9.394;2022-12-07T05:16:35;5.10;99.90
10468;DHT22;5281;48.878;9.394;2022-12-07T05:19:03;5.10;99.90
10468;DHT22;5281;48.878;9.394;2022-12-07T05:21:29;4.90;99.90
10468;DHT22;5281;48.878;9.394;2022-12-07T05:23:56;4.80;99.90
10468;DHT22;5281;48.878;9.394;2022-12-07T05:26:24;4.70;99.90
10468;DHT22;5281;48.878;9.394;2022-12-07T05:28:52;4.60;99.90
10468;DHT22;5281;48.878;9.394;2022-12-07T05:31:19;4.60;99.90
10468;DHT22;5281;48.878;9.394;2022-12-07T05:33:46;4.60;99.90
10468;DHT22;5281;48.878;9.394;2022-12-07T05:36:13;4.50;99.90
10468;DHT22;5281;48.878;9.394;2022-12-07T05:38:39;4.50;99.90
10468;DHT22;5281;48.878;9.394;2022-12-07T05:41:07;4.40;99.90
10468;DHT22;5281;48.878;9.394;2022-12-07T05:43:56;4.40;99.90
10468;DHT22;5281;48.878;9.394;2022-12-07T05:46:23;4.50;99.90
10468;DHT22;5281;48.878;9.394;2022-12-07T05:48:49;4.70;99.90
10468;DHT22;5281;48.878;9.394;2022-12-07T05:51:16;4.80;99.90
10468;DHT22;5281;48.878;9.394;2022-12-07T05:53:44;5.00;99.90
10468;DHT22;5281;48.878;9.394;2022-12-07T05:56:11;5.20;99.90
10468;DHT22;5281;48.878;9.394;2022-12-07T05:58:37;5.30;99.90
10468;DHT22;5281;48.878;9.394;2022-12-07T06:01:23;5.40;99.90
10468;DHT22;5281;48.878;9.394;2022-12-07T06:03:50;5.40;99.90
10468;DHT22;5281;48.878;9.394;2022-12-07T06:06:16;5.50;99.90
10468;DHT22;5281;48.878;9.394;2022-12-07T06:08:43;5.50;99.90
10468;DHT22;5281;48.878;9.394;2022-12-07T06:11:10;5.60;99.90
10468;DHT22;5281;48.878;9.394;2022-12-07T06:13:54;5.60;99.90
10468;DHT22;5281;48.878;9.394;2022-12-07T06:16:23;5.60;99.90
10468;DHT22;5281;48.878;9.394;2022-12-07T06:18:49;5.70;99.90
10468;DHT22;5281;48.878;9.394;2022-12-07T06:21:16;5.80;99.90
10468;DHT22;5281;48.878;9.394;2022-12-07T06:23:43;5.80;99.90
10468;DHT22;5281;48.878;9.394;2022-12-07T06:26:10;5.90;99.90
10468;DHT22;5281;48.878;9.394;2022-12-07T06:28:37;5.90;99.90
10468;DHT22;5281;48.878;9.394;2022-12-07T06:31:04;5.90;99.90
10468;DHT22;5281;48.878;9.394;2022-12-07T06:33:32;6.00;99.90
10468;DHT22;5281;48.878;9.394;2022-12-07T06:35:58;5.90;99.90
10468;DHT22;5281;48.878;9.394;2022-12-07T06:38:25;6.00;99.90
10468;DHT22;5281;48.878;9.394;2022-12-07T06:40:52;6.10;99.90
10468;DHT22;5281;48.878;9.394;2022-12-07T06:43:18;6.20;99.90
10468;DHT22;5281;48.878;9.394;2022-12-07T06:45:45;6.20;99.90
10468;DHT22;5281;48.878;9.394;2022-12-07T06:48:12;6.30;99.90
10468;DHT22;5281;48.878;9.394;2022-12-07T06:50:41;6.30;99.90
10468;DHT22;5281;48.878;9.394;2022-12-07T06:53:08;6.30;99.90
10468;DHT22;5281;48.878;9.394;2022-12-07T06:55:35;6.30;99.90
10468;DHT22;5281;48.878;9.394;2022-12-07T06:58:02;6.40;99.90
10468;DHT22;5281;48.878;9.394;2022-12-07T07:00:29;6.40;99.90
10468;DHT22;5281;48.878;9.394;2022-12-07T07:02:56;6.50;99.90
10468;DHT22;5281;48.878;9.394;2022-12-07T07:05:22;6.50;99.90
10468;DHT22;5281;48.878;9.394;2022-12-07T07:07:51;6.50;99.90
10468;DHT22;5281;48.878;9.394;2022-12-07T07:10:17;6.50;99.90
10468;DHT22;5281;48.878;9.394;2022-12-07T07:12:44;6.50;99.90
10468;DHT22;5281;48.878;9.394;2022-12-07T07:15:11;6.60;99.90
10468;DHT22;5281;48.878;9.394;2022-12-07T07:17:38;6.50;99.90
10468;DHT22;5281;48.878;9.394;2022-12-07T07:20:05;6.50;99.90
10468;DHT22;5281;48.878;9.394;2022-12-07T07:22:32;6.50;99.90
10468;DHT22;5281;48.878;9.394;2022-12-07T07:25:00;6.60;99.90
10468;DHT22;5281;48.878;9.394;2022-12-07T07:27:27;6.60;99.90
10468;DHT22;5281;48.878;9.394;2022-12-07T07:29:54;6.60;99.90
10468;DHT22;5281;48.878;9.394;2022-12-07T07:32:21;6.60;99.90
10468;DHT22;5281;48.878;9.394;2022-12-07T07:34:48;6.70;99.90
10468;DHT22;5281;48.878;9.394;2022-12-07T07:37:14;6.70;99.90
10468;DHT22;5281;48.878;9.394;2022-12-07T07:39:41;6.80;99.90
10468;DHT22;5281;48.878;9.394;2022-12-07T07:42:10;6.80;99.90
10468;DHT22;5281;48.878;9.394;2022-12-07T07:44:37;6.80;99.90
10468;DHT22;5281;48.878;9.394;2022-12-07T07:47:04;6.80;99.90
10468;DHT22;5281;48.878;9.394;2022-12-07T07:49:30;6.80;99.90
10468;DHT22;5281;48.878;9.394;2022-12-07T07:51:57;6.80;99.90
10468;DHT22;5281;48.878;9.394;2022-12-07T07:54:24;6.90;99.90
10468;DHT22;5281;48.878;9.394;2022-12-07T07:56:52;6.80;99.90
10468;DHT22;5281;48.878;9.394;2022-12-07T07:59:20;6.90;99.90
10468;DHT22;5281;48.878;9.394;2022-12-07T08:01:47;7.00;99.90
10468;DHT22;5281;48.878;9.394;2022-12-07T08:04:14;7.00;99.90
10468;DHT22;5281;48.878;9.394;2022-12-07T08:06:41;7.10;99.90
10468;DHT22;5281;48.878;9.394;2022-12-07T08:09:08;7.20;99.90
10468;DHT22;5281;48.878;9.394;2022-12-07T08:11:36;7.20;99.90
10468;DHT22;5281;48.878;9.394;2022-12-07T08:14:03;7.30;99.90
10468;DHT22;5281;48.878;9.394;2022-12-07T08:16:31;7.40;99.90
10468;DHT22;5281;48.878;9.394;2022-12-07T08:18:58;7.50;99.90
10468;DHT22;5281;48.878;9.394;2022-12-07T08:21:25;7.60;99.90
10468;DHT22;5281;48.878;9.394;2022-12-07T08:23:52;7.60;99.90
10468;DHT22;5281;48.878;9.394;2022-12-07T08:26:19;7.60;99.90
10468;DHT22;5281;48.878;9.394;2022-12-07T08:28:46;7.70;99.90
10468;DHT22;5281;48.878;9.394;2022-12-07T08:31:15;7.80;99.90
10468;DHT22;5281;48.878;9.394;2022-12-07T08:33:44;7.90;99.90
10468;DHT22;5281;48.878;9.394;2022-12-07T08:36:12;7.90;99.90
10468;DHT22;5281;48.878;9.394;2022-12-07T08:38:40;7.90;99.90
10468;DHT22;5281;48.878;9.394;2022-12-07T08:41:07;7.90;99.90
10468;DHT22;5281;48.878;9.394;2022-12-07T08:43:35;7.90;99.90
10468;DHT22;5281;48.878;9.394;2022-12-07T08:46:07;8.00;99.90
10468;DHT22;5281;48.878;9.394;2022-12-07T08:48:37;8.10;99.90
10468;DHT22;5281;48.878;9.394;2022-12-07T08:51:07;8.10;99.90
10468;DHT22;5281;48.878;9.394;2022-12-07T08:53:34;8.30;99.90
10468;DHT22;5281;48.878;9.394;2022-12-07T08:56:02;8.30;99.90
10468;DHT22;5281;48.878;9.394;2022-12-07T08:58:30;8.40;99.90
10468;DHT22;5281;48.878;9.394;2022-12-07T09:00:57;8.50;99.90
10468;DHT22;5281;48.878;9.394;2022-12-07T09:03:24;8.50;99.90
10468;DHT22;5281;48.878;9.394;2022-12-07T09:05:51;8.50;99.90
10468;DHT22;5281;48.878;9.394;2022-12-07T09:08:20;8.50;99.90
10468;DHT22;5281;48.878;9.394;2022-12-07T09:10:48;8.60;99.90
10468;DHT22;5281;48.878;9.394;2022-12-07T09:13:15;8.70;99.90
10468;DHT22;5281;48.878;9.394;2022-12-07T09:15:42;8.60;99.90
10468;DHT22;5281;48.878;9.394;2022-12-07T09:18:08;8.70;99.90
10468;DHT22;5281;48.878;9.394;2022-12-07T09:20:35;8.70;99.90
10468;DHT22;5281;48.878;9.394;2022-12-07T09:23:02;8.80;99.90
10468;DHT22;5281;48.878;9.394;2022-12-07T09:25:33;8.80;99.90
10468;DHT22;5281;48.878;9.394;2022-12-07T09:28:00;8.90;99.90
10468;DHT22;5281;48.878;9.394;2022-12-07T09:30:28;9.10;99.90
10468;DHT22;5281;48.878;9.394;2022-12-07T09:32:55;9.10;99.90
10468;DHT22;5281;48.878;9.394;2022-12-07T09:35:25;9.20;99.90
10468;DHT22;5281;48.878;9.394;2022-12-07T09:37:52;9.20;99.90
10468;DHT22;5281;48.878;9.394;2022-12-07T09:40:20;9.30;99.90
10468;DHT22;5281;48.878;9.394;2022-12-07T09:42:51;9.30;99.90
10468;DHT22;5281;48.878;9.394;2022-12-07T09:45:22;9.30;99.90
10468;DHT22;5281;48.878;9.394;2022-12-07T09:47:49;9.40;99.90
10468;DHT22;5281;48.878;9.394;2022-12-07T09:50:20;9.50;99.90
10468;DHT22;5281;48.878;9.394;2022-12-07T09:52:49;9.50;99.90
10468;DHT22;5281;48.878;9.394;2022-12-07T09:55:19;9.60;99.90
10468;DHT22;5281;48.878;9.394;2022-12-07T09:57:50;9.70;99.90
10468;DHT22;5281;48.878;9.394;2022-12-07T10:00:20;9.60;99.90
10468;DHT22;5281;48.878;9.394;2022-12-07T10:02:51;9.60;99.90
10468;DHT22;5281;48.878;9.394;2022-12-07T10:05:20;9.70;99.90
10468;DHT22;5281;48.878;9.394;2022-12-07T10:07:48;9.70;99.90
10468;DHT22;5281;48.878;9.394;2022-12-07T10:10:19;9.60;99.90
10468;DHT22;5281;48.878;9.394;2022-12-07T10:12:56;9.60;99.90
10468;DHT22;5281;48.878;9.394;2022-12-07T10:15:23;9.50;99.90
10468;DHT22;5281;48.878;9.394;2022-12-07T10:18:17;9.40;99.90
10468;DHT22;5281;48.878;9.394;2022-12-07T10:20:45;9.30;99.90
10468;DHT22;5281;48.878;9.394;2022-12-07T10:23:15;9.20;99.90
10468;DHT22;5281;48.878;9.394;2022-12-07T10:25:43;9.20;99.90
10468;DHT22;5281;48.878;9.394;2022-12-07T10:28:15;8.90;99.90
10468;DHT22;5281;48.878;9.394;2022-12-07T10:30:51;8.90;99.90
10468;DHT22;5281;48.878;9.394;2022-12-07T10:33:37;8.90;99.90
10468;DHT22;5281;48.878;9.394;2022-12-07T10:36:21;8.90;99.90
10468;DHT22;5281;48.878;9.394;2022-12-07T10:38:50;8.90;99.90
10468;DHT22;5281;48.878;9.394;2022-12-07T10:41:17;8.90;99.90
10468;DHT22;5281;48.878;9.394;2022-12-07T10:43:51;9.00;99.90
10468;DHT22;5281;48.878;9.394;2022-12-07T10:55:40;9.00;99.90
10468;DHT22;5281;48.878;9.394;2022-12-07T10:58:28;8.90;99.90
10468;DHT22;5281;48.878;9.394;2022-12-07T11:01:06;8.80;99.90
10468;DHT22;5281;48.878;9.394;2022-12-07T11:03:48;8.60;99.90
10468;DHT22;5281;48.878;9.394;2022-12-07T11:06:27;8.60;99.90
10468;DHT22;5281;48.878;9.394;2022-12-07T11:09:03;8.80;99.90
10468;DHT22;5281;48.878;9.394;2022-12-07T11:11:35;8.80;99.90
10468;DHT22;5281;48.878;9.394;2022-12-07T11:14:10;8.80;99.90
10468;DHT22;5281;48.878;9.394;2022-12-07T11:16:51;8.90;99.90
10468;DHT22;5281;48.878;9.394;2022-12-07T11:19:34;8.90;99.90
10468;DHT22;5281;48.878;9.394;2022-12-07T11:22:11;8.90;99.90
10468;DHT22;5281;48.878;9.394;2022-12-07T11:24:46;9.20;99.90
10468;DHT22;5281;48.878;9.394;2022-12-07T11:27:23;9.10;99.90
10468;DHT22;5281;48.878;9.394;2022-12-07T11:30:14;9.00;99.90
10468;DHT22;5281;48.878;9.394;2022-12-07T11:32:56;9.00;99.90
10468;DHT22;5281;48.878;9.394;2022-12-07T11:35:32;8.90;99.90
10468;DHT22;5281;48.878;9.394;2022-12-07T11:38:01;8.90;99.90
10468;DHT22;5281;48.878;9.394;2022-12-07T11:40:31;8.80;99.90
10468;DHT22;5281;48.878;9.394;2022-12-07T11:43:05;8.60;99.90
10468;DHT22;5281;48.878;9.394;2022-12-07T11:45:34;8.50;99.90
10468;DHT22;5281;48.878;9.394;2022-12-07T11:48:05;8.50;99.90
10468;DHT22;5281;48.878;9.394;2022-12-07T11:50:37;8.60;99.90
10468;DHT22;5281;48.878;9.394;2022-12-07T11:53:12;8.80;99.90
10468;DHT22;5281;48.878;9.394;2022-12-07T11:55:45;9.00;99.90
10468;DHT22;5281;48.878;9.394;2022-12-07T11:58:36;9.00;99.90
10468;DHT22;5281;48.878;9.394;2022-12-07T12:01:13;9.00;99.90
10468;DHT22;5281;48.878;9.394;2022-12-07T12:03:45;9.10;99.90
10468;DHT22;5281;48.878;9.394;2022-12-07T12:06:13;9.10;99.90
10468;DHT22;5281;48.878;9.394;2022-12-07T12:08:43;9.20;99.90
10468;DHT22;5281;48.878;9.394;2022-12-07T12:11:25;9.20;99.90
10468;DHT22;5281;48.878;9.394;2022-12-07T12:14:18;9.30;99.90
10468;DHT22;5281;48.878;9.394;2022-12-07T12:17:13;9.40;99.90
10468;DHT22;5281;48.878;9.394;2022-12-07T12:19:59;9.10;99.90
10468;DHT22;5281;48.878;9.394;2022-12-07T12:22:35;8.90;99.90
10468;DHT22;5281;48.878;9.394;2022-12-07T12:25:05;9.00;99.90
10468;DHT22;5281;48.878;9.394;2022-12-07T12:27:34;9.20;99.90
10468;DHT22;5281;48.878;9.394;2022-12-07T12:30:05;9.40;99.90
10468;DHT22;5281;48.878;9.394;2022-12-07T12:32:37;9.50;99.90
10468;DHT22;5281;48.878;9.394;2022-12-07T12:35:28;9.50;99.90
10468;DHT22;5281;48.878;9.394;2022-12-07T12:38:31;9.60;99.90
10468;DHT22;5281;48.878;9.394;2022-12-07T12:41:00;9.40;99.90
10468;DHT22;5281;48.878;9.394;2022-12-07T12:43:45;9.40;99.90
10468;DHT22;5281;48.878;9.394;2022-12-07T12:46:46;9.40;99.90
10468;DHT22;5281;48.878;9.394;2022-12-07T12:55:58;9.30;99.90
10468;DHT22;5281;48.878;9.394;2022-12-07T12:58:33;9.30;99.90
10468;DHT22;5281;48.878;9.394;2022-12-07T13:04:39;9.10;99.90
10468;DHT22;5281;48.878;9.394;2022-12-07T13:07:51;9.10;99.90
10468;DHT22;5281;48.878;9.394;2022-12-07T13:10:36;9.20;99.90
10468;DHT22;5281;48.878;9.394;2022-12-07T13:13:28;9.30;99.90
10468;DHT22;5281;48.878;9.394;2022-12-07T13:16:38;9.20;99.90
10468;DHT22;5281;48.878;9.394;2022-12-07T13:22:48;9.00;99.90
10468;DHT22;5281;48.878;9.394;2022-12-07T13:25:26;8.80;99.90
10468;DHT22;5281;48.878;9.394;2022-12-07T13:27:59;8.80;99.90
10468;DHT22;5281;48.878;9.394;2022-12-07T13:30:29;8.60;99.90
10468;DHT22;5281;48.878;9.394;2022-12-07T13:32:58;8.40;99.90
10468;DHT22;5281;48.878;9.394;2022-12-07T13:35:36;8.50;99.90
10468;DHT22;5281;48.878;9.394;2022-12-07T13:38:22;8.50;99.90
10468;DHT22;5281;48.878;9.394;2022-12-07T13:41:03;8.60;99.90
10468;DHT22;5281;48.878;9.394;2022-12-07T13:43:30;8.80;99.90
10468;DHT22;5281;48.878;9.394;2022-12-07T13:45:59;8.90;99.90
10468;DHT22;5281;48.878;9.394;2022-12-07T13:48:31;8.80;99.90
10468;DHT22;5281;48.878;9.394;2022-12-07T13:51:00;8.80;99.90
10468;DHT22;5281;48.878;9.394;2022-12-07T13:53:28;8.80;99.90
10468;DHT22;5281;48.878;9.394;2022-12-07T13:55:56;8.80;99.90
10468;DHT22;5281;48.878;9.394;2022-12-07T13:58:24;8.70;99.90
10468;DHT22;5281;48.878;9.394;2022-12-07T14:00:51;8.70;99.90
10468;DHT22;5281;48.878;9.394;2022-12-07T14:03:31;8.80;99.90
10468;DHT22;5281;48.878;9.394;2022-12-07T14:06:21;8.90;99.90
10468;DHT22;5281;48.878;9.394;2022-12-07T14:08:50;9.00;99.90
10468;DHT22;5281;48.878;9.394;2022-12-07T14:11:19;9.00;99.90
10468;DHT22;5281;48.878;9.394;2022-12-07T14:14:04;8.90;99.90
10468;DHT22;5281;48.878;9.394;2022-12-07T14:16:33;8.60;99.90
10468;DHT22;5281;48.878;9.394;2022-12-07T14:19:03;8.70;99.90
10468;DHT22;5281;48.878;9.394;2022-12-07T14:21:32;8.80;99.90
10468;DHT22;5281;48.878;9.394;2022-12-07T14:24:15;8.90;99.90
10468;DHT22;5281;48.878;9.394;2022-12-07T14:26:43;8.90;99.90
10468;DHT22;5281;48.878;9.394;2022-12-07T14:29:30;8.70;99.90
10468;DHT22;5281;48.878;9.394;2022-12-07T14:34:53;8.50;99.90
10468;DHT22;5281;48.878;9.394;2022-12-07T14:37:20;8.60;99.90
10468;DHT22;5281;48.878;9.394;2022-12-07T14:39:47;8.50;99.90
10468;DHT22;5281;48.878;9.394;2022-12-07T14:42:14;8.50;99.90
10468;DHT22;5281;48.878;9.394;2022-12-07T14:44:41;8.40;99.90
10468;DHT22;5281;48.878;9.394;2022-12-07T14:47:09;8.30;99.90
10468;DHT22;5281;48.878;9.394;2022-12-07T14:49:36;8.10;99.90
10468;DHT22;5281;48.878;9.394;2022-12-07T14:52:05;8.10;99.90
10468;DHT22;5281;48.878;9.394;2022-12-07T14:54:33;7.90;99.90
10468;DHT22;5281;48.878;9.394;2022-12-07T14:57:00;7.80;99.90
10468;DHT22;5281;48.878;9.394;2022-12-07T14:59:26;7.70;99.90
10468;DHT22;5281;48.878;9.394;2022-12-07T15:01:53;7.70;99.90
10468;DHT22;5281;48.878;9.394;2022-12-07T15:04:20;7.80;99.90
10468;DHT22;5281;48.878;9.394;2022-12-07T15:06:55;7.80;99.90
10468;DHT22;5281;48.878;9.394;2022-12-07T15:09:24;7.80;99.90
10468;DHT22;5281;48.878;9.394;2022-12-07T15:11:51;7.80;99.90
10468;DHT22;5281;48.878;9.394;2022-12-07T15:14:17;7.80;99.90
10468;DHT22;5281;48.878;9.394;2022-12-07T15:16:45;7.80;99.90
10468;DHT22;5281;48.878;9.394;2022-12-07T15:19:13;7.80;99.90
10468;DHT22;5281;48.878;9.394;2022-12-07T15:21:41;7.90;99.90
10468;DHT22;5281;48.878;9.394;2022-12-07T15:24:09;8.00;99.90
10468;DHT22;5281;48.878;9.394;2022-12-07T15:26:38;8.10;99.90
10468;DHT22;5281;48.878;9.394;2022-12-07T15:29:06;8.10;99.90
10468;DHT22;5281;48.878;9.394;2022-12-07T15:31:33;7.80;99.90
10468;DHT22;5281;48.878;9.394;2022-12-07T15:34:00;7.80;99.90
10468;DHT22;5281;48.878;9.394;2022-12-07T15:36:29;7.60;99.90
10468;DHT22;5281;48.878;9.394;2022-12-07T15:38:57;7.60;99.90
10468;DHT22;5281;48.878;9.394;2022-12-07T15:41:24;7.70;99.90
10468;DHT22;5281;48.878;9.394;2022-12-07T15:43:52;7.80;99.90
10468;DHT22;5281;48.878;9.394;2022-12-07T15:46:38;7.60;99.90
10468;DHT22;5281;48.878;9.394;2022-12-07T15:49:08;7.40;99.90
10468;DHT22;5281;48.878;9.394;2022-12-07T15:51:35;7.20;99.90
10468;DHT22;5281;48.878;9.394;2022-12-07T15:54:02;7.20;99.90
10468;DHT22;5281;48.878;9.394;2022-12-07T15:56:29;7.10;99.90
10468;DHT22;5281;48.878;9.394;2022-12-07T15:58:57;7.10;99.90
10468;DHT22;5281;48.878;9.394;2022-12-07T16:01:24;7.10;99.90
10468;DHT22;5281;48.878;9.394;2022-12-07T16:03:51;7.00;99.90
10468;DHT22;5281;48.878;9.394;2022-12-07T16:06:18;7.00;99.90
10468;DHT22;5281;48.878;9.394;2022-12-07T16:08:46;7.00;99.90
10468;DHT22;5281;48.878;9.394;2022-12-07T16:11:13;7.00;99.90
10468;DHT22;5281;48.878;9.394;2022-12-07T16:13:40;7.00;99.90
10468;DHT22;5281;48.878;9.394;2022-12-07T16:16:12;7.00;99.90
10468;DHT22;5281;48.878;9.394;2022-12-07T16:18:41;7.10;99.90
10468;DHT22;5281;48.878;9.394;2022-12-07T16:21:08;7.10;99.90
10468;DHT22;5281;48.878;9.394;2022-12-07T16:23:35;7.20;99.90
10468;DHT22;5281;48.878;9.394;2022-12-07T16:26:06;7.30;99.90
10468;DHT22;5281;48.878;9.394;2022-12-07T16:28:33;7.30;99.90
10468;DHT22;5281;48.878;9.394;2022-12-07T16:31:03;7.30;99.90
10468;DHT22;5281;48.878;9.394;2022-12-07T16:33:32;7.40;99.90
10468;DHT22;5281;48.878;9.394;2022-12-07T16:35:58;7.40;99.90
10468;DHT22;5281;48.878;9.394;2022-12-07T16:38:26;7.40;99.90
10468;DHT22;5281;48.878;9.394;2022-12-07T16:40:53;7.40;99.90
10468;DHT22;5281;48.878;9.394;2022-12-07T16:43:21;7.40;99.90
10468;DHT22;5281;48.878;9.394;2022-12-07T16:45:48;7.40;99.90
10468;DHT22;5281;48.878;9.394;2022-12-07T16:48:16;7.40;99.90
10468;DHT22;5281;48.878;9.394;2022-12-07T16:50:45;7.40;99.90
10468;DHT22;5281;48.878;9.394;2022-12-07T16:53:13;7.40;99.90